sensor_id;sensor_type;location;lat;lon;timestamp;pressure;altitude;pressure_sealevel;temperature;humidity
76216;BME280;65010;50.190;18.930;2024-03-22T00:00:35;98560.59;;;12.27;48.40
76216;BME280;65010;50.190;18.930;2024-03-22T00:03:37;98567.31;;;12.30;48.48
76216;BME280;65010;50.190;18.930;2024-03-22T00:06:40;98559.59;;;12.28;48.61
76216;BME280;65010;50.190;18.930;2024-03-22T00:09:42;98563.50;;;12.33;48.76
76216;BME280;65010;50.190;18.930;2024-03-22T00:12:45;98557.97;;;12.27;48.99
76216;BME280;65010;50.190;18.930;2024-03-22T00:15:49;98555.34;;;12.27;49.08
76216;BME280;65010;50.190;18.930;2024-03-22T00:18:51;98567.97;;;12.32;49.30
76216;BME280;65010;50.190;18.930;2024-03-22T00:21:53;98565.50;;;12.31;49.17
76216;BME280;65010;50.190;18.930;2024-03-22T00:24:56;98563.06;;;12.29;49.58
76216;BME280;65010;50.190;18.930;2024-03-22T00:27:57;98562.69;;;12.32;49.63
76216;BME280;65010;50.190;18.930;2024-03-22T00:31:02;98562.22;;;12.28;49.84
76216;BME280;65010;50.190;18.930;2024-03-22T00:34:04;98564.94;;;12.20;49.97
76216;BME280;65010;50.190;18.930;2024-03-22T00:37:07;98556.31;;;12.12;50.41
76216;BME280;65010;50.190;18.930;2024-03-22T00:40:10;98557.47;;;12.09;50.49
76216;BME280;65010;50.190;18.930;2024-03-22T00:43:13;98567.38;;;12.07;50.51
76216;BME280;65010;50.190;18.930;2024-03-22T00:46:17;98545.75;;;11.97;50.60
76216;BME280;65010;50.190;18.930;2024-03-22T00:49:21;98564.28;;;12.03;51.02
76216;BME280;65010;50.190;18.930;2024-03-22T00:52:22;98556.72;;;12.00;51.08
76216;BME280;65010;50.190;18.930;2024-03-22T00:55:25;98555.72;;;12.01;51.37
76216;BME280;65010;50.190;18.930;2024-03-22T00:58:27;98563.00;;;11.99;51.94
76216;BME280;65010;50.190;18.930;2024-03-22T01:01:32;98555.44;;;11.96;51.85
76216;BME280;65010;50.190;18.930;2024-03-22T01:04:34;98552.78;;;11.96;52.18
76216;BME280;65010;50.190;18.930;2024-03-22T01:07:37;98553.16;;;11.93;52.90
76216;BME280;65010;50.190;18.930;2024-03-22T01:10:40;98548.88;;;11.92;52.85
76216;BME280;65010;50.190;18.930;2024-03-22T01:13:42;98548.16;;;11.98;53.04
76216;BME280;65010;50.190;18.930;2024-03-22T01:16:50;98546.81;;;12.02;53.61
76216;BME280;65010;50.190;18.930;2024-03-22T01:19:52;98550.81;;;11.98;53.38
76216;BME280;65010;50.190;18.930;2024-03-22T01:22:54;98555.81;;;11.93;53.83
76216;BME280;65010;50.190;18.930;2024-03-22T01:25:56;98555.00;;;11.93;53.97
76216;BME280;65010;50.190;18.930;2024-03-22T01:28:58;98551.50;;;11.92;54.84
76216;BME280;65010;50.190;18.930;2024-03-22T01:32:03;98552.06;;;11.87;54.82
76216;BME280;65010;50.190;18.930;2024-03-22T01:35:06;98564.41;;;11.87;54.80
76216;BME280;65010;50.190;18.930;2024-03-22T01:38:09;98550.88;;;11.90;54.92
76216;BME280;65010;50.190;18.930;2024-03-22T01:41:11;98557.44;;;11.94;54.68
76216;BME280;65010;50.190;18.930;2024-03-22T01:44:13;98561.34;;;11.98;54.95
76216;BME280;65010;50.190;18.930;2024-03-22T01:47:18;98554.28;;;11.99;54.73
76216;BME280;65010;50.190;18.930;2024-03-22T01:50:20;98560.53;;;11.98;55.13
76216;BME280;65010;50.190;18.930;2024-03-22T01:53:23;98556.97;;;11.91;55.59
76216;BME280;65010;50.190;18.930;2024-03-22T01:56:26;98564.75;;;11.84;55.86
76216;BME280;65010;50.190;18.930;2024-03-22T01:59:29;98561.47;;;11.82;56.17
76216;BME280;65010;50.190;18.930;2024-03-22T02:02:35;98568.91;;;11.78;55.92
76216;BME280;65010;50.190;18.930;2024-03-22T02:05:36;98568.72;;;11.80;56.20
76216;BME280;65010;50.190;18.930;2024-03-22T02:08:39;98561.53;;;11.74;56.56
76216;BME280;65010;50.190;18.930;2024-03-22T02:11:41;98559.56;;;11.76;56.52
76216;BME280;65010;50.190;18.930;2024-03-22T02:14:44;98553.09;;;11.78;56.37
76216;BME280;65010;50.190;18.930;2024-03-22T02:17:49;98557.72;;;11.76;56.37
76216;BME280;65010;50.190;18.930;2024-03-22T02:20:51;98567.91;;;11.79;56.49
76216;BME280;65010;50.190;18.930;2024-03-22T02:23:55;98563.94;;;11.83;56.46
76216;BME280;65010;50.190;18.930;2024-03-22T02:26:58;98568.66;;;11.88;56.14
76216;BME280;65010;50.190;18.930;2024-03-22T02:29:59;98568.50;;;11.89;56.03
76216;BME280;65010;50.190;18.930;2024-03-22T02:33:02;98559.31;;;11.85;56.38
76216;BME280;65010;50.190;18.930;2024-03-22T02:36:05;98552.59;;;11.83;56.39
76216;BME280;65010;50.190;18.930;2024-03-22T02:39:10;98551.59;;;11.84;56.52
76216;BME280;65010;50.190;18.930;2024-03-22T02:42:12;98551.94;;;11.81;56.49
76216;BME280;65010;50.190;18.930;2024-03-22T02:45:14;98546.84;;;11.79;56.52
76216;BME280;65010;50.190;18.930;2024-03-22T02:48:16;98554.41;;;11.82;56.50
76216;BME280;65010;50.190;18.930;2024-03-22T02:51:18;98556.09;;;11.75;56.48
76216;BME280;65010;50.190;18.930;2024-03-22T02:54:23;98561.75;;;11.64;57.13
76216;BME280;65010;50.190;18.930;2024-03-22T02:57:25;98556.44;;;11.49;57.55
76216;BME280;65010;50.190;18.930;2024-03-22T03:00:27;98551.56;;;11.38;58.24
76216;BME280;65010;50.190;18.930;2024-03-22T03:03:29;98557.06;;;11.28;58.32
76216;BME280;65010;50.190;18.930;2024-03-22T03:06:31;98548.88;;;11.23;58.36
76216;BME280;65010;50.190;18.930;2024-03-22T03:09:36;98552.97;;;11.17;58.47
76216;BME280;65010;50.190;18.930;2024-03-22T03:12:37;98543.63;;;11.15;58.61
76216;BME280;65010;50.190;18.930;2024-03-22T03:15:40;98549.06;;;11.13;58.89
76216;BME280;65010;50.190;18.930;2024-03-22T03:18:41;98543.47;;;11.16;59.15
76216;BME280;65010;50.190;18.930;2024-03-22T03:21:44;98545.75;;;11.19;58.77
76216;BME280;65010;50.190;18.930;2024-03-22T03:24:48;98549.34;;;11.26;58.89
76216;BME280;65010;50.190;18.930;2024-03-22T03:27:50;98533.72;;;11.25;58.74
76216;BME280;65010;50.190;18.930;2024-03-22T03:30:52;98539.94;;;11.32;58.77
76216;BME280;65010;50.190;18.930;2024-03-22T03:33:54;98540.22;;;11.37;58.50
76216;BME280;65010;50.190;18.930;2024-03-22T03:36:56;98541.94;;;11.30;58.98
76216;BME280;65010;50.190;18.930;2024-03-22T03:40:02;98538.00;;;11.26;58.89
76216;BME280;65010;50.190;18.930;2024-03-22T03:43:04;98528.31;;;11.26;58.87
76216;BME280;65010;50.190;18.930;2024-03-22T03:46:07;98532.06;;;11.24;58.70
76216;BME280;65010;50.190;18.930;2024-03-22T03:49:08;98536.22;;;11.18;58.84
76216;BME280;65010;50.190;18.930;2024-03-22T03:52:11;98534.56;;;11.17;58.92
76216;BME280;65010;50.190;18.930;2024-03-22T03:55:15;98527.69;;;11.16;58.97
76216;BME280;65010;50.190;18.930;2024-03-22T03:58:17;98521.78;;;11.14;58.87
76216;BME280;65010;50.190;18.930;2024-03-22T04:01:19;98528.19;;;11.12;58.73
76216;BME280;65010;50.190;18.930;2024-03-22T04:04:22;98534.78;;;11.07;58.60
76216;BME280;65010;50.190;18.930;2024-03-22T04:07:23;98543.34;;;11.01;58.87
76216;BME280;65010;50.190;18.930;2024-03-22T04:10:28;98541.25;;;10.97;58.92
76216;BME280;65010;50.190;18.930;2024-03-22T04:13:30;98534.53;;;10.94;59.07
76216;BME280;65010;50.190;18.930;2024-03-22T04:16:32;98531.69;;;10.96;59.31
76216;BME280;65010;50.190;18.930;2024-03-22T04:19:34;98530.25;;;10.93;59.15
76216;BME280;65010;50.190;18.930;2024-03-22T04:22:36;98535.66;;;10.92;59.47
76216;BME280;65010;50.190;18.930;2024-03-22T04:25:41;98524.69;;;10.88;59.64
76216;BME280;65010;50.190;18.930;2024-03-22T04:28:43;98525.16;;;10.92;59.97
76216;BME280;65010;50.190;18.930;2024-03-22T04:31:45;98511.84;;;10.93;59.88
76216;BME280;65010;50.190;18.930;2024-03-22T04:34:47;98522.47;;;11.00;59.65
76216;BME280;65010;50.190;18.930;2024-03-22T04:37:49;98526.22;;;11.05;59.66
76216;BME280;65010;50.190;18.930;2024-03-22T04:40:54;98516.56;;;11.06;59.63
76216;BME280;65010;50.190;18.930;2024-03-22T04:43:57;98520.16;;;11.05;59.50
76216;BME280;65010;50.190;18.930;2024-03-22T04:46:59;98517.22;;;11.00;59.48
76216;BME280;65010;50.190;18.930;2024-03-22T04:50:02;98528.25;;;10.95;59.25
76216;BME280;65010;50.190;18.930;2024-03-22T04:53:06;98527.66;;;10.85;59.34
76216;BME280;65010;50.190;18.930;2024-03-22T04:56:10;98538.38;;;10.75;59.15
76216;BME280;65010;50.190;18.930;2024-03-22T04:59:13;98535.94;;;10.65;59.08
76216;BME280;65010;50.190;18.930;2024-03-22T05:02:14;98540.88;;;10.60;59.03
76216;BME280;65010;50.190;18.930;2024-03-22T05:05:17;98538.13;;;10.54;59.18
76216;BME280;65010;50.190;18.930;2024-03-22T05:08:18;98544.53;;;10.51;59.16
76216;BME280;65010;50.190;18.930;2024-03-22T05:11:23;98539.25;;;10.51;59.03
76216;BME280;65010;50.190;18.930;2024-03-22T05:14:25;98543.84;;;10.57;58.80
76216;BME280;65010;50.190;18.930;2024-03-22T05:17:27;98557.31;;;10.62;58.60
76216;BME280;65010;50.190;18.930;2024-03-22T05:20:29;98558.63;;;10.66;58.36
76216;BME280;65010;50.190;18.930;2024-03-22T05:23:31;98547.94;;;10.68;58.30
76216;BME280;65010;50.190;18.930;2024-03-22T05:26:36;98549.56;;;10.69;57.73
76216;BME280;65010;50.190;18.930;2024-03-22T05:29:38;98551.53;;;10.67;57.68
76216;BME280;65010;50.190;18.930;2024-03-22T05:32:40;98557.47;;;10.61;57.72
76216;BME280;65010;50.190;18.930;2024-03-22T05:35:43;98556.00;;;10.58;57.59
76216;BME280;65010;50.190;18.930;2024-03-22T05:38:44;98557.19;;;10.56;57.61
76216;BME280;65010;50.190;18.930;2024-03-22T05:41:49;98552.56;;;10.49;57.95
76216;BME280;65010;50.190;18.930;2024-03-22T05:44:51;98563.44;;;10.46;57.91
76216;BME280;65010;50.190;18.930;2024-03-22T05:47:54;98567.03;;;10.45;57.52
76216;BME280;65010;50.190;18.930;2024-03-22T05:50:56;98568.03;;;10.44;57.03
76216;BME280;65010;50.190;18.930;2024-03-22T05:53:58;98557.81;;;10.49;57.07
76216;BME280;65010;50.190;18.930;2024-03-22T05:57:03;98557.34;;;10.54;56.86
76216;BME280;65010;50.190;18.930;2024-03-22T06:00:07;98554.56;;;10.56;56.46
76216;BME280;65010;50.190;18.930;2024-03-22T06:03:09;98550.06;;;10.64;56.09
76216;BME280;65010;50.190;18.930;2024-03-22T06:06:11;98537.06;;;10.71;56.23
76216;BME280;65010;50.190;18.930;2024-03-22T06:09:13;98549.88;;;10.74;55.48
76216;BME280;65010;50.190;18.930;2024-03-22T06:12:18;98541.47;;;10.79;55.52
76216;BME280;65010;50.190;18.930;2024-03-22T06:15:20;98536.53;;;10.84;54.93
76216;BME280;65010;50.190;18.930;2024-03-22T06:18:22;98541.47;;;10.79;54.60
76216;BME280;65010;50.190;18.930;2024-03-22T06:21:24;98545.13;;;10.78;54.65
76216;BME280;65010;50.190;18.930;2024-03-22T06:24:26;98557.13;;;10.72;54.61
76216;BME280;65010;50.190;18.930;2024-03-22T06:27:32;98554.81;;;10.69;54.67
76216;BME280;65010;50.190;18.930;2024-03-22T06:30:35;98559.59;;;10.65;54.66
76216;BME280;65010;50.190;18.930;2024-03-22T06:33:36;98553.91;;;10.54;54.75
76216;BME280;65010;50.190;18.930;2024-03-22T06:36:39;98551.91;;;10.47;55.13
76216;BME280;65010;50.190;18.930;2024-03-22T06:39:40;98548.81;;;10.52;55.27
76216;BME280;65010;50.190;18.930;2024-03-22T06:42:45;98553.38;;;10.58;55.51
76216;BME280;65010;50.190;18.930;2024-03-22T06:45:47;98554.84;;;10.61;54.94
76216;BME280;65010;50.190;18.930;2024-03-22T06:48:50;98557.47;;;10.61;54.96
76216;BME280;65010;50.190;18.930;2024-03-22T06:51:51;98556.81;;;10.59;55.32
76216;BME280;65010;50.190;18.930;2024-03-22T06:54:54;98553.88;;;10.62;55.38
76216;BME280;65010;50.190;18.930;2024-03-22T06:57:58;98557.63;;;10.59;55.58
76216;BME280;65010;50.190;18.930;2024-03-22T07:01:00;98552.88;;;10.63;55.32
76216;BME280;65010;50.190;18.930;2024-03-22T07:04:02;98546.44;;;10.65;55.38
76216;BME280;65010;50.190;18.930;2024-03-22T07:07:04;98548.09;;;10.66;55.14
76216;BME280;65010;50.190;18.930;2024-03-22T07:10:06;98544.47;;;10.67;54.93
76216;BME280;65010;50.190;18.930;2024-03-22T07:13:12;98544.97;;;10.71;55.24
76216;BME280;65010;50.190;18.930;2024-03-22T07:16:13;98554.16;;;10.67;55.20
76216;BME280;65010;50.190;18.930;2024-03-22T07:19:16;98553.69;;;10.63;55.13
76216;BME280;65010;50.190;18.930;2024-03-22T07:22:18;98547.97;;;10.60;55.28
76216;BME280;65010;50.190;18.930;2024-03-22T07:25:20;98552.72;;;10.56;55.49
76216;BME280;65010;50.190;18.930;2024-03-22T07:28:24;98553.03;;;10.61;55.69
76216;BME280;65010;50.190;18.930;2024-03-22T07:31:27;98545.47;;;10.66;55.75
76216;BME280;65010;50.190;18.930;2024-03-22T07:34:29;98547.75;;;10.78;55.81
76216;BME280;65010;50.190;18.930;2024-03-22T07:37:31;98548.69;;;10.85;55.63
76216;BME280;65010;50.190;18.930;2024-03-22T07:40:33;98544.25;;;10.85;55.65
76216;BME280;65010;50.190;18.930;2024-03-22T07:43:38;98542.66;;;10.76;54.96
76216;BME280;65010;50.190;18.930;2024-03-22T07:46:39;98541.00;;;10.75;55.22
76216;BME280;65010;50.190;18.930;2024-03-22T07:49:42;98538.72;;;10.72;55.30
76216;BME280;65010;50.190;18.930;2024-03-22T07:52:44;98538.88;;;10.71;55.14
76216;BME280;65010;50.190;18.930;2024-03-22T07:55:46;98533.28;;;10.74;55.31
76216;BME280;65010;50.190;18.930;2024-03-22T07:58:50;98530.19;;;10.70;55.48
76216;BME280;65010;50.190;18.930;2024-03-22T08:01:52;98533.63;;;10.71;55.49
76216;BME280;65010;50.190;18.930;2024-03-22T08:04:54;98523.28;;;10.69;55.50
76216;BME280;65010;50.190;18.930;2024-03-22T08:07:57;98526.72;;;10.69;55.69
76216;BME280;65010;50.190;18.930;2024-03-22T08:10:58;98522.91;;;10.80;55.98
76216;BME280;65010;50.190;18.930;2024-03-22T08:14:03;98518.44;;;10.89;55.87
76216;BME280;65010;50.190;18.930;2024-03-22T08:17:07;98519.41;;;10.96;55.71
76216;BME280;65010;50.190;18.930;2024-03-22T08:20:11;98525.25;;;11.06;55.60
76216;BME280;65010;50.190;18.930;2024-03-22T08:23:13;98519.94;;;11.23;55.47
76216;BME280;65010;50.190;18.930;2024-03-22T08:26:15;98529.94;;;11.27;54.85
76216;BME280;65010;50.190;18.930;2024-03-22T08:29:19;98528.91;;;11.37;55.17
76216;BME280;65010;50.190;18.930;2024-03-22T08:32:22;98525.91;;;11.40;54.53
76216;BME280;65010;50.190;18.930;2024-03-22T08:35:23;98534.97;;;11.37;54.76
76216;BME280;65010;50.190;18.930;2024-03-22T08:38:26;98535.50;;;11.33;54.47
76216;BME280;65010;50.190;18.930;2024-03-22T08:41:27;98539.63;;;11.27;54.65
76216;BME280;65010;50.190;18.930;2024-03-22T08:44:32;98538.84;;;11.18;54.70
76216;BME280;65010;50.190;18.930;2024-03-22T08:47:34;98534.72;;;11.24;54.78
76216;BME280;65010;50.190;18.930;2024-03-22T08:50:36;98531.91;;;11.25;54.47
76216;BME280;65010;50.190;18.930;2024-03-22T08:53:38;98533.56;;;11.26;55.04
76216;BME280;65010;50.190;18.930;2024-03-22T08:56:40;98528.78;;;11.30;54.82
76216;BME280;65010;50.190;18.930;2024-03-22T08:59:45;98521.47;;;11.40;54.94
76216;BME280;65010;50.190;18.930;2024-03-22T09:02:47;98525.13;;;11.54;54.67
76216;BME280;65010;50.190;18.930;2024-03-22T09:05:52;98525.13;;;11.62;54.44
76216;BME280;65010;50.190;18.930;2024-03-22T09:08:55;98528.19;;;11.66;53.97
76216;BME280;65010;50.190;18.930;2024-03-22T09:11:58;98525.56;;;11.66;54.02
76216;BME280;65010;50.190;18.930;2024-03-22T09:15:05;98529.19;;;11.65;53.64
76216;BME280;65010;50.190;18.930;2024-03-22T09:18:08;98537.38;;;11.70;53.77
76216;BME280;65010;50.190;18.930;2024-03-22T09:21:10;98522.41;;;11.71;53.55
76216;BME280;65010;50.190;18.930;2024-03-22T09:24:12;98526.03;;;11.69;53.66
76216;BME280;65010;50.190;18.930;2024-03-22T09:27:14;98524.91;;;11.64;53.69
76216;BME280;65010;50.190;18.930;2024-03-22T09:30:18;98525.28;;;11.61;53.27
76216;BME280;65010;50.190;18.930;2024-03-22T09:33:21;98517.91;;;11.56;53.80
76216;BME280;65010;50.190;18.930;2024-03-22T09:36:22;98519.53;;;11.57;53.71
76216;BME280;65010;50.190;18.930;2024-03-22T09:39:25;98520.56;;;11.56;53.54
76216;BME280;65010;50.190;18.930;2024-03-22T09:42:32;98498.81;;;11.54;53.82
76216;BME280;65010;50.190;18.930;2024-03-22T09:45:38;98497.13;;;11.61;53.71
76216;BME280;65010;50.190;18.930;2024-03-22T09:48:41;98493.31;;;11.64;53.83
76216;BME280;65010;50.190;18.930;2024-03-22T09:51:47;98500.63;;;11.77;53.36
76216;BME280;65010;50.190;18.930;2024-03-22T09:54:52;98500.03;;;11.89;53.00
76216;BME280;65010;50.190;18.930;2024-03-22T09:57:56;98491.63;;;12.09;53.28
76216;BME280;65010;50.190;18.930;2024-03-22T10:01:03;98485.25;;;12.18;52.01
76216;BME280;65010;50.190;18.930;2024-03-22T10:04:06;98475.19;;;12.37;52.47
76216;BME280;65010;50.190;18.930;2024-03-22T10:07:08;98475.03;;;12.53;51.61
76216;BME280;65010;50.190;18.930;2024-03-22T10:10:11;98476.44;;;12.71;51.24
76216;BME280;65010;50.190;18.930;2024-03-22T10:13:13;98475.88;;;12.90;50.64
76216;BME280;65010;50.190;18.930;2024-03-22T10:16:18;98478.56;;;13.12;50.98
76216;BME280;65010;50.190;18.930;2024-03-22T10:19:20;98478.75;;;13.32;49.08
76216;BME280;65010;50.190;18.930;2024-03-22T10:22:22;98470.78;;;13.46;49.93
76216;BME280;65010;50.190;18.930;2024-03-22T10:25:25;98479.63;;;13.60;48.59
76216;BME280;65010;50.190;18.930;2024-03-22T10:28:28;98471.44;;;13.55;48.73
76216;BME280;65010;50.190;18.930;2024-03-22T10:31:34;98473.84;;;13.50;48.60
76216;BME280;65010;50.190;18.930;2024-03-22T10:34:37;98469.69;;;13.41;47.79
76216;BME280;65010;50.190;18.930;2024-03-22T10:37:40;98464.63;;;13.39;48.59
76216;BME280;65010;50.190;18.930;2024-03-22T10:40:44;98450.09;;;13.50;48.44
76216;BME280;65010;50.190;18.930;2024-03-22T10:43:46;98455.63;;;13.77;48.14
76216;BME280;65010;50.190;18.930;2024-03-22T10:46:55;98446.44;;;14.01;47.79
76216;BME280;65010;50.190;18.930;2024-03-22T10:50:06;98448.31;;;14.07;47.22
76216;BME280;65010;50.190;18.930;2024-03-22T10:53:15;98438.91;;;13.98;46.57
76216;BME280;65010;50.190;18.930;2024-03-22T10:56:23;98436.59;;;13.88;46.87
76216;BME280;65010;50.190;18.930;2024-03-22T10:59:26;98430.09;;;13.91;47.16
76216;BME280;65010;50.190;18.930;2024-03-22T11:02:32;98428.28;;;13.91;47.01
76216;BME280;65010;50.190;18.930;2024-03-22T11:05:45;98422.44;;;13.96;46.99
76216;BME280;65010;50.190;18.930;2024-03-22T11:08:50;98420.88;;;14.08;47.05
76216;BME280;65010;50.190;18.930;2024-03-22T11:11:55;98416.88;;;14.25;46.45
76216;BME280;65010;50.190;18.930;2024-03-22T11:14:57;98415.28;;;14.24;46.11
76216;BME280;65010;50.190;18.930;2024-03-22T11:18:03;98411.19;;;14.22;45.98
76216;BME280;65010;50.190;18.930;2024-03-22T11:21:05;98399.94;;;14.06;46.12
76216;BME280;65010;50.190;18.930;2024-03-22T11:24:09;98390.56;;;14.04;46.26
76216;BME280;65010;50.190;18.930;2024-03-22T11:27:11;98404.00;;;14.09;46.15
76216;BME280;65010;50.190;18.930;2024-03-22T11:30:15;98406.91;;;13.86;46.04
76216;BME280;65010;50.190;18.930;2024-03-22T11:33:19;98402.34;;;13.73;46.57
76216;BME280;65010;50.190;18.930;2024-03-22T11:36:23;98399.47;;;13.68;46.69
76216;BME280;65010;50.190;18.930;2024-03-22T11:39:24;98395.03;;;13.75;47.26
76216;BME280;65010;50.190;18.930;2024-03-22T11:42:27;98384.69;;;13.74;46.44
76216;BME280;65010;50.190;18.930;2024-03-22T11:45:30;98382.88;;;13.74;46.80
76216;BME280;65010;50.190;18.930;2024-03-22T11:48:38;98377.31;;;13.69;46.32
76216;BME280;65010;50.190;18.930;2024-03-22T11:51:41;98368.47;;;13.55;46.90
76216;BME280;65010;50.190;18.930;2024-03-22T11:54:50;98365.88;;;13.62;46.84
76216;BME280;65010;50.190;18.930;2024-03-22T11:57:52;98371.09;;;13.77;46.84
76216;BME280;65010;50.190;18.930;2024-03-22T12:00:55;98366.06;;;13.82;46.11
76216;BME280;65010;50.190;18.930;2024-03-22T12:04:00;98367.91;;;13.88;46.39
76216;BME280;65010;50.190;18.930;2024-03-22T12:07:03;98363.69;;;13.94;46.16
76216;BME280;65010;50.190;18.930;2024-03-22T12:10:05;98361.66;;;13.96;45.67
76216;BME280;65010;50.190;18.930;2024-03-22T12:13:08;98354.72;;;13.95;45.97
76216;BME280;65010;50.190;18.930;2024-03-22T12:16:10;98352.53;;;13.98;45.95
76216;BME280;65010;50.190;18.930;2024-03-22T12:19:15;98356.84;;;14.06;45.98
76216;BME280;65010;50.190;18.930;2024-03-22T12:22:17;98352.00;;;14.16;46.16
76216;BME280;65010;50.190;18.930;2024-03-22T12:25:19;98342.84;;;14.19;45.63
76216;BME280;65010;50.190;18.930;2024-03-22T12:28:21;98350.34;;;14.15;45.44
76216;BME280;65010;50.190;18.930;2024-03-22T12:31:24;98344.00;;;14.03;45.68
76216;BME280;65010;50.190;18.930;2024-03-22T12:34:28;98342.69;;;13.85;46.11
76216;BME280;65010;50.190;18.930;2024-03-22T12:37:31;98340.63;;;13.81;46.10
76216;BME280;65010;50.190;18.930;2024-03-22T12:40:33;98331.94;;;13.87;46.45
76216;BME280;65010;50.190;18.930;2024-03-22T12:43:36;98329.09;;;13.88;46.19
76216;BME280;65010;50.190;18.930;2024-03-22T12:46:38;98326.88;;;13.92;46.07
76216;BME280;65010;50.190;18.930;2024-03-22T12:49:43;98311.06;;;14.05;46.05
76216;BME280;65010;50.190;18.930;2024-03-22T12:52:44;98317.47;;;14.24;45.47
76216;BME280;65010;50.190;18.930;2024-03-22T12:55:47;98303.88;;;14.41;45.00
76216;BME280;65010;50.190;18.930;2024-03-22T12:58:49;98305.16;;;14.58;44.51
76216;BME280;65010;50.190;18.930;2024-03-22T13:01:53;98303.13;;;14.67;43.95
76216;BME280;65010;50.190;18.930;2024-03-22T13:04:57;98293.34;;;14.67;44.27
76216;BME280;65010;50.190;18.930;2024-03-22T13:08:00;98284.88;;;14.72;43.94
76216;BME280;65010;50.190;18.930;2024-03-22T13:11:02;98284.00;;;14.65;43.97
76216;BME280;65010;50.190;18.930;2024-03-22T13:14:05;98284.19;;;14.57;44.27
76216;BME280;65010;50.190;18.930;2024-03-22T13:17:06;98277.25;;;14.42;44.28
76216;BME280;65010;50.190;18.930;2024-03-22T13:20:11;98281.28;;;14.32;44.58
76216;BME280;65010;50.190;18.930;2024-03-22T13:23:16;98272.13;;;14.27;44.52
76216;BME280;65010;50.190;18.930;2024-03-22T13:26:18;98271.50;;;14.25;44.83
76216;BME280;65010;50.190;18.930;2024-03-22T13:29:20;98268.66;;;14.27;44.81
76216;BME280;65010;50.190;18.930;2024-03-22T13:32:22;98258.91;;;14.27;44.71
76216;BME280;65010;50.190;18.930;2024-03-22T13:35:27;98257.88;;;14.22;44.50
76216;BME280;65010;50.190;18.930;2024-03-22T13:38:29;98254.22;;;14.16;44.71
76216;BME280;65010;50.190;18.930;2024-03-22T13:41:31;98255.00;;;14.17;44.85
76216;BME280;65010;50.190;18.930;2024-03-22T13:44:34;98258.09;;;14.27;45.07
76216;BME280;65010;50.190;18.930;2024-03-22T13:47:36;98258.69;;;14.29;44.52
76216;BME280;65010;50.190;18.930;2024-03-22T13:50:41;98253.97;;;14.18;44.70
76216;BME280;65010;50.190;18.930;2024-03-22T13:53:43;98250.53;;;14.17;44.87
76216;BME280;65010;50.190;18.930;2024-03-22T13:56:45;98245.66;;;14.21;44.97
76216;BME280;65010;50.190;18.930;2024-03-22T13:59:47;98239.16;;;14.17;44.87
76216;BME280;65010;50.190;18.930;2024-03-22T14:02:50;98228.56;;;14.10;45.00
76216;BME280;65010;50.190;18.930;2024-03-22T14:05:54;98230.19;;;14.04;45.21
76216;BME280;65010;50.190;18.930;2024-03-22T14:08:57;98230.34;;;13.96;45.46
76216;BME280;65010;50.190;18.930;2024-03-22T14:11:59;98223.22;;;13.90;45.68
76216;BME280;65010;50.190;18.930;2024-03-22T14:15:02;98219.19;;;13.94;45.26
76216;BME280;65010;50.190;18.930;2024-03-22T14:18:04;98213.66;;;13.82;45.29
76216;BME280;65010;50.190;18.930;2024-03-22T14:21:10;98220.34;;;13.78;45.38
76216;BME280;65010;50.190;18.930;2024-03-22T14:24:13;98218.28;;;13.74;45.86
76216;BME280;65010;50.190;18.930;2024-03-22T14:27:16;98220.31;;;13.72;45.60
76216;BME280;65010;50.190;18.930;2024-03-22T14:30:18;98217.44;;;13.66;45.68
76216;BME280;65010;50.190;18.930;2024-03-22T14:33:20;98206.59;;;13.61;46.02
76216;BME280;65010;50.190;18.930;2024-03-22T14:36:24;98203.63;;;13.64;45.95
76216;BME280;65010;50.190;18.930;2024-03-22T14:39:27;98211.72;;;13.63;45.78
76216;BME280;65010;50.190;18.930;2024-03-22T14:42:28;98201.78;;;13.65;45.90
76216;BME280;65010;50.190;18.930;2024-03-22T14:45:31;98205.81;;;13.61;45.67
76216;BME280;65010;50.190;18.930;2024-03-22T14:48:32;98197.06;;;13.54;45.90
76216;BME280;65010;50.190;18.930;2024-03-22T14:51:37;98193.00;;;13.58;45.83
76216;BME280;65010;50.190;18.930;2024-03-22T14:54:39;98189.53;;;13.57;45.87
76216;BME280;65010;50.190;18.930;2024-03-22T14:57:41;98187.09;;;13.56;45.80
76216;BME280;65010;50.190;18.930;2024-03-22T15:00:50;98184.47;;;13.56;45.92
76216;BME280;65010;50.190;18.930;2024-03-22T15:03:54;98184.13;;;13.65;46.00
76216;BME280;65010;50.190;18.930;2024-03-22T15:06:58;98173.78;;;13.71;46.11
76216;BME280;65010;50.190;18.930;2024-03-22T15:10:00;98174.22;;;13.87;46.07
76216;BME280;65010;50.190;18.930;2024-03-22T15:13:02;98155.34;;;13.97;45.44
76216;BME280;65010;50.190;18.930;2024-03-22T15:16:06;98150.69;;;13.99;45.54
76216;BME280;65010;50.190;18.930;2024-03-22T15:19:08;98158.59;;;13.99;45.10
76216;BME280;65010;50.190;18.930;2024-03-22T15:22:13;98143.97;;;13.90;45.56
76216;BME280;65010;50.190;18.930;2024-03-22T15:25:15;98141.13;;;13.98;45.59
76216;BME280;65010;50.190;18.930;2024-03-22T15:28:18;98137.47;;;13.99;45.36
76216;BME280;65010;50.190;18.930;2024-03-22T15:31:19;98146.63;;;14.03;45.58
76216;BME280;65010;50.190;18.930;2024-03-22T15:34:22;98132.59;;;13.96;45.37
76216;BME280;65010;50.190;18.930;2024-03-22T15:37:26;98140.75;;;14.08;45.78
76216;BME280;65010;50.190;18.930;2024-03-22T15:40:29;98133.81;;;14.14;45.65
76216;BME280;65010;50.190;18.930;2024-03-22T15:43:30;98130.97;;;14.15;45.27
76216;BME280;65010;50.190;18.930;2024-03-22T15:46:33;98139.34;;;14.12;45.22
76216;BME280;65010;50.190;18.930;2024-03-22T15:49:34;98135.66;;;14.13;45.42
76216;BME280;65010;50.190;18.930;2024-03-22T15:52:39;98127.53;;;14.15;45.48
76216;BME280;65010;50.190;18.930;2024-03-22T15:55:41;98124.91;;;14.15;45.55